createdAt,value
2019-02-12T00:01:30.350Z,100040.17
2019-02-12T00:04:01.712Z,100034.67
2019-02-12T00:06:34.153Z,100033.37
2019-02-12T00:09:07.529Z,100035.77
2019-02-12T00:11:39.123Z,100045.73
2019-02-12T00:14:10.556Z,100054.89
2019-02-12T00:16:42.263Z,100054.89
2019-02-12T00:19:13.527Z,100050.65
2019-02-12T00:21:45.215Z,100050.65
2019-02-12T00:24:17.055Z,100085.83
2019-02-12T00:26:48.623Z,100085.83
2019-02-12T00:29:20.611Z,100106.87
2019-02-12T00:31:52.093Z,100119.02
2019-02-12T00:34:23.879Z,100125.83
2019-02-12T00:36:55.446Z,100126.47
2019-02-12T00:39:27.435Z,100130.27
2019-02-12T00:41:58.916Z,100136.61
2019-02-12T00:44:30.297Z,100136.61
2019-02-12T00:47:01.809Z,100149.23
2019-02-12T00:49:34.316Z,100149.23
2019-02-12T00:52:05.735Z,100159.64
2019-02-12T00:54:37.383Z,100153.27
2019-02-12T00:57:08.786Z,100147.11
2019-02-12T00:59:40.016Z,100156.94
2019-02-12T01:02:11.344Z,100161.89
2019-02-12T01:04:43.428Z,100161.89
2019-02-12T01:07:15.255Z,100145.81
2019-02-12T01:09:46.702Z,100120.77
2019-02-12T01:12:18.502Z,100120.77
2019-02-12T01:14:50.141Z,100132.52
2019-02-12T01:17:21.565Z,100132.52
2019-02-12T01:19:52.835Z,100134.42
2019-02-12T01:22:24.581Z,100144.79
2019-02-12T01:24:56.145Z,100144.79
2019-02-12T01:27:27.562Z,100149.20
2019-02-12T01:29:59.143Z,100150.25
2019-02-12T01:32:30.998Z,100166.17
2019-02-12T01:35:02.496Z,100165.59
2019-02-12T01:37:34.068Z,100163.81
2019-02-12T01:40:05.780Z,100163.81
2019-02-12T01:42:39.154Z,100173.23
2019-02-12T01:45:11.887Z,100172.07
2019-02-12T01:47:42.888Z,100182.75
2019-02-12T01:50:15.317Z,100186.89
2019-02-12T01:55:16.329Z,100195.23
2019-02-12T01:57:47.888Z,100195.23
2019-02-12T02:00:19.201Z,100202.70
2019-02-12T02:02:50.488Z,100202.70
2019-02-12T02:05:21.791Z,100212.18
2019-02-12T02:07:53.551Z,100212.18
2019-02-12T02:10:25.047Z,100213.80
2019-02-12T02:12:56.665Z,100215.25
2019-02-12T02:15:28.506Z,100215.25
2019-02-12T02:18:00.289Z,100220.76
2019-02-12T02:20:31.412Z,100225.80
2019-02-12T02:23:02.522Z,100218.87
2019-02-12T02:25:33.716Z,100231.30
2019-02-12T02:28:04.934Z,100231.30
2019-02-12T02:30:36.151Z,100240.35
2019-02-12T02:33:07.367Z,100249.01
2019-02-12T02:35:39.701Z,100266.05
2019-02-12T02:38:11.830Z,100256.61
2019-02-12T02:40:43.059Z,100237.57
2019-02-12T02:43:14.545Z,100219.27
2019-02-12T02:45:46.235Z,100218.48
2019-02-12T02:48:18.091Z,100216.80
2019-02-12T02:50:49.533Z,100218.98
2019-02-12T02:53:20.642Z,100219.19
2019-02-12T02:55:52.011Z,100216.30
2019-02-12T02:58:23.269Z,100209.02
2019-02-12T03:00:54.353Z,100209.02
2019-02-12T03:03:25.836Z,100211.34
2019-02-12T03:05:57.122Z,100226.14
2019-02-12T03:08:28.398Z,100223.55
2019-02-12T03:10:59.669Z,100214.30
2019-02-12T03:13:30.737Z,100217.67
2019-02-12T03:16:02.338Z,100228.19
2019-02-12T03:18:33.831Z,100247.95
2019-02-12T03:21:05.328Z,100264.06
2019-02-12T03:23:36.820Z,100264.06
2019-02-12T03:26:08.085Z,100282.27
2019-02-12T03:28:39.192Z,100306.22
2019-02-12T03:31:12.570Z,100321.84
2019-02-12T03:33:43.699Z,100332.05
2019-02-12T03:36:15.848Z,100340.12
2019-02-12T03:38:47.291Z,100346.36
2019-02-12T03:41:18.819Z,100365.41
2019-02-12T03:43:50.298Z,100367.02
2019-02-12T03:46:22.213Z,100370.52
2019-02-12T03:48:53.703Z,100369.54
2019-02-12T03:51:25.363Z,100366.15
2019-02-12T03:53:56.717Z,100363.42
2019-02-12T03:56:28.088Z,100363.42
2019-02-12T03:58:59.181Z,100373.55
2019-02-12T04:01:30.468Z,100369.10
2019-02-12T04:04:01.920Z,100369.10
2019-02-12T04:06:33.501Z,100372.73
2019-02-12T04:09:05.976Z,100372.73
2019-02-12T04:11:36.955Z,100372.77
2019-02-12T04:14:08.740Z,100368.12
2019-02-12T04:16:41.121Z,100368.12
2019-02-12T04:19:12.247Z,100370.22
2019-02-12T04:21:44.343Z,100368.32
2019-02-12T04:24:15.936Z,100362.89
2019-02-12T04:26:47.773Z,100381.73
2019-02-12T04:29:20.075Z,100374.89
2019-02-12T04:31:51.602Z,100374.89
2019-02-12T04:34:22.982Z,100376.00
2019-02-12T04:36:54.553Z,100379.34
2019-02-12T04:39:26.199Z,100392.43
2019-02-12T04:41:57.618Z,100392.43
2019-02-12T04:44:29.008Z,100395.69
2019-02-12T04:47:01.412Z,100382.13
2019-02-12T04:49:32.778Z,100382.13
2019-02-12T04:52:04.920Z,100391.09
2019-02-12T04:54:36.345Z,100391.09
2019-02-12T04:57:07.795Z,100379.17
2019-02-12T04:59:39.617Z,100380.66
2019-02-12T05:02:11.500Z,100380.66
2019-02-12T05:04:43.398Z,100386.97
2019-02-12T05:07:15.330Z,100389.09
2019-02-12T05:09:48.628Z,100389.69
2019-02-12T05:12:21.654Z,100380.67
2019-02-12T05:14:53.044Z,100377.38
2019-02-12T05:17:24.596Z,100380.22
2019-02-12T05:19:56.458Z,100379.89
2019-02-12T05:22:28.483Z,100374.30
2019-02-12T05:24:59.857Z,100374.30
2019-02-12T05:27:31.683Z,100370.11
2019-02-12T05:30:03.180Z,100370.11
2019-02-12T05:32:35.732Z,100397.78
2019-02-12T05:35:08.206Z,100369.61
2019-02-12T05:37:40.744Z,100356.86
2019-02-12T05:40:16.030Z,100349.18
2019-02-12T05:42:47.602Z,100346.11
2019-02-12T05:45:18.997Z,100343.20
2019-02-12T05:47:50.771Z,100343.95
2019-02-12T05:50:22.521Z,100343.95
2019-02-12T05:52:55.114Z,100346.52
2019-02-12T05:55:27.090Z,100341.25
2019-02-12T05:57:58.590Z,100343.23
2019-02-12T06:00:31.571Z,100343.15
2019-02-12T06:03:04.550Z,100335.64
2019-02-12T06:05:35.959Z,100337.75
2019-02-12T06:08:08.008Z,100337.75
2019-02-12T06:10:40.180Z,100324.43
2019-02-12T06:13:11.741Z,100324.43
2019-02-12T06:15:43.392Z,100324.09
2019-02-12T06:18:14.602Z,100324.09
2019-02-12T06:20:46.681Z,100313.41
2019-02-12T06:23:18.401Z,100317.38
2019-02-12T06:25:50.083Z,100312.02
2019-02-12T06:28:21.646Z,100299.09
2019-02-12T06:30:53.939Z,100285.16
2019-02-12T06:33:25.605Z,100285.16
2019-02-12T06:35:57.290Z,100276.84
2019-02-12T06:38:28.907Z,100276.84
2019-02-12T06:41:01.716Z,100264.33
2019-02-12T06:43:35.447Z,100261.02
2019-02-12T06:46:07.158Z,100254.86
2019-02-12T06:48:38.723Z,100248.19
2019-02-12T06:51:10.207Z,100235.59
2019-02-12T06:53:42.063Z,100232.86
2019-02-12T06:56:13.799Z,100226.46
2019-02-12T06:58:46.343Z,100226.46
2019-02-12T07:01:17.525Z,100212.22
2019-02-12T07:04:09.564Z,100212.33
2019-02-12T07:07:30.402Z,100214.86
2019-02-12T07:10:06.808Z,100214.86
2019-02-12T07:13:13.138Z,100210.86
2019-02-12T07:16:15.940Z,100197.75
2019-02-12T07:19:15.322Z,100199.41
2019-02-12T07:22:32.702Z,100202.13
2019-02-12T07:25:45.600Z,100202.13
2019-02-12T07:28:50.920Z,100200.76
2019-02-12T07:32:02.588Z,100188.44
2019-02-12T07:34:52.671Z,100188.44
2019-02-12T07:38:16.910Z,100172.59
2019-02-12T07:41:20.022Z,100172.59
2019-02-12T07:44:31.142Z,100169.24
2019-02-12T07:47:38.337Z,100166.30
2019-02-12T07:51:01.174Z,100161.19
2019-02-12T07:54:12.584Z,100161.19
2019-02-12T07:57:36.778Z,100149.77
2019-02-12T08:00:59.659Z,100149.77
2019-02-12T08:04:17.635Z,100150.27
2019-02-12T08:07:36.779Z,100144.28
2019-02-12T08:10:54.326Z,100144.28
2019-02-12T08:13:50.043Z,100126.39
2019-02-12T08:16:38.458Z,100126.39
2019-02-12T08:20:03.468Z,100120.59
2019-02-12T08:23:10.167Z,100122.88
2019-02-12T08:26:14.218Z,100104.50
2019-02-12T08:29:26.216Z,100104.50
2019-02-12T08:32:29.661Z,100096.09
2019-02-12T08:35:59.301Z,100093.94
2019-02-12T08:38:44.064Z,100093.94
2019-02-12T08:41:39.832Z,100098.75
2019-02-12T08:44:30.320Z,100098.75
2019-02-12T08:47:58.212Z,100085.19
2019-02-12T08:55:06.936Z,100086.52
2019-02-12T08:58:26.549Z,100083.03
2019-02-12T09:01:15.540Z,100083.03
2019-02-12T09:04:26.591Z,100071.53
2019-02-12T09:07:43.841Z,100071.53
2019-02-12T09:10:42.455Z,100078.42
2019-02-12T09:13:36.776Z,100078.42
2019-02-12T09:16:58.783Z,100072.01
2019-02-12T09:20:26.050Z,100063.59
2019-02-12T09:24:00.162Z,100062.72
2019-02-12T09:26:59.726Z,100054.39
2019-02-12T09:29:51.834Z,100045.54
2019-02-12T09:33:18.534Z,100049.89
2019-02-12T09:36:42.039Z,100045.75
2019-02-12T09:39:51.874Z,100045.75
2019-02-12T09:42:59.476Z,100034.75
2019-02-12T09:46:11.304Z,100033.93
2019-02-12T09:49:02.928Z,100033.93
2019-02-12T09:51:41.543Z,100030.35
2019-02-12T09:54:38.280Z,100030.35
2019-02-12T09:57:57.041Z,100040.02
2019-02-12T10:01:01.936Z,100029.06
2019-02-12T10:04:14.339Z,100025.48
2019-02-12T10:07:26.470Z,100025.48
2019-02-12T10:10:24.296Z,100022.94
2019-02-12T10:13:31.887Z,100022.94
2019-02-12T10:16:32.953Z,100013.67
2019-02-12T10:19:22.355Z,100008.03
2019-02-12T10:22:35.248Z,100008.03
2019-02-12T10:25:20.056Z,100010.32
2019-02-12T10:28:17.617Z,100010.32
2019-02-12T10:31:28.345Z,99996.92
2019-02-12T10:34:00.222Z,99996.92
2019-02-12T10:36:31.527Z,99987.88
2019-02-12T10:39:03.042Z,99987.88
2019-02-12T10:41:36.214Z,99990.73
2019-02-12T10:44:08.732Z,99990.73
2019-02-12T10:46:40.326Z,99999.22
2019-02-12T10:49:11.867Z,99986.87
2019-02-12T10:51:43.075Z,99986.87
2019-02-12T10:54:14.862Z,99985.89
2019-02-12T10:56:46.160Z,99985.89
2019-02-12T10:59:17.513Z,99990.94
2019-02-12T11:01:49.166Z,99990.94
2019-02-12T11:04:21.615Z,99996.23
2019-02-12T11:06:55.528Z,99992.84
2019-02-12T11:09:30.271Z,99992.84
2019-02-12T11:12:01.553Z,99993.56
2019-02-12T11:14:33.349Z,99997.55
2019-02-12T11:17:04.663Z,99998.30
2019-02-12T11:19:36.330Z,99996.33
2019-02-12T11:22:08.329Z,99995.73
2019-02-12T11:24:39.881Z,99999.88
2019-02-12T11:27:11.196Z,99999.88
2019-02-12T11:29:43.164Z,100007.16
2019-02-12T11:32:14.646Z,100007.16
2019-02-12T11:34:46.245Z,100005.84
2019-02-12T11:37:17.501Z,100007.08
2019-02-12T11:39:49.195Z,100008.80
2019-02-12T11:42:20.420Z,100008.80
2019-02-12T11:44:52.049Z,100012.55
2019-02-12T11:47:23.474Z,100013.87
2019-02-12T11:49:55.174Z,100027.31
2019-02-12T11:52:26.682Z,100026.63
2019-02-12T11:54:58.146Z,100041.98
2019-02-12T11:57:29.553Z,100041.98
2019-02-12T12:00:01.141Z,100044.86
2019-02-12T12:02:41.804Z,100044.86
2019-02-12T12:05:08.629Z,100051.34
2019-02-12T12:07:40.676Z,100060.73
2019-02-12T12:10:12.534Z,100066.05
2019-02-12T12:12:44.075Z,100066.05
2019-02-12T12:15:15.859Z,100073.70
2019-02-12T12:17:47.683Z,100093.00
2019-02-12T12:20:19.221Z,100093.00
2019-02-12T12:22:50.924Z,100096.41
2019-02-12T12:25:22.136Z,100097.94
2019-02-12T12:27:53.597Z,100097.80
2019-02-12T12:30:25.192Z,100097.80
2019-02-12T12:32:57.349Z,100098.09
2019-02-12T12:35:28.650Z,100102.67
2019-02-12T12:38:00.546Z,100102.67
2019-02-12T12:40:32.169Z,100103.97
2019-02-12T12:43:03.884Z,100103.14
2019-02-12T12:45:35.529Z,100117.39
2019-02-12T12:48:07.346Z,100117.39
2019-02-12T12:50:38.791Z,100113.38
2019-02-12T12:53:10.288Z,100113.19
2019-02-12T12:55:41.749Z,100114.20
2019-02-12T12:58:13.197Z,100123.02
2019-02-12T13:00:44.441Z,100123.10
2019-02-12T13:03:16.024Z,100123.10
2019-02-12T13:05:49.732Z,100121.07
2019-02-12T13:08:21.232Z,100121.07
2019-02-12T13:10:55.481Z,100121.15
2019-02-12T13:13:28.549Z,100124.13
2019-02-12T13:16:00.221Z,100124.13
2019-02-12T13:18:32.360Z,100119.45
2019-02-12T13:21:04.404Z,100126.53
2019-02-12T13:23:35.937Z,100126.53
2019-02-12T13:26:07.375Z,100135.78
2019-02-12T13:28:38.696Z,100139.55
2019-02-12T13:31:09.920Z,100139.55
2019-02-12T13:33:41.420Z,100142.80
2019-02-12T13:36:14.198Z,100146.30
2019-02-12T13:38:45.979Z,100144.85
2019-02-12T13:41:17.657Z,100149.91
2019-02-12T13:43:48.963Z,100149.91
2019-02-12T13:46:20.702Z,100152.14
2019-02-12T13:48:52.226Z,100163.08
2019-02-12T13:51:23.750Z,100163.08
2019-02-12T13:53:55.825Z,100152.36
2019-02-12T13:56:27.338Z,100161.08
2019-02-12T13:58:58.813Z,100164.20
2019-02-12T14:01:30.423Z,100165.95
2019-02-12T14:04:03.667Z,100165.95
2019-02-12T14:06:37.491Z,100168.70
2019-02-12T14:09:15.810Z,100172.97
2019-02-12T14:11:48.858Z,100172.97
2019-02-12T14:14:24.168Z,100179.92
2019-02-12T14:17:03.152Z,100178.55
2019-02-12T14:19:34.671Z,100184.58
2019-02-12T14:22:06.095Z,100186.58
2019-02-12T14:24:38.751Z,100186.58
2019-02-12T14:27:10.211Z,100186.66
2019-02-12T14:29:42.032Z,100201.52
2019-02-12T14:32:13.176Z,100205.52
2019-02-12T14:34:45.301Z,100209.27
2019-02-12T14:37:17.011Z,100220.94
2019-02-12T14:39:48.496Z,100222.38
2019-02-12T14:42:20.144Z,100222.38
2019-02-12T14:44:51.428Z,100224.30
2019-02-12T14:47:22.600Z,100232.80
2019-02-12T14:49:54.229Z,100232.80
2019-02-12T14:52:25.353Z,100235.36
2019-02-12T14:54:56.498Z,100238.62
2019-02-12T14:57:27.892Z,100243.16
2019-02-12T14:59:59.949Z,100249.10
2019-02-12T15:02:31.915Z,100249.25
2019-02-12T15:05:03.181Z,100249.25
2019-02-12T15:07:34.757Z,100256.27
2019-02-12T15:10:06.620Z,100253.45
2019-02-12T15:12:38.019Z,100258.70
2019-02-12T15:15:09.909Z,100252.79
2019-02-12T15:17:41.417Z,100252.79
2019-02-12T15:20:13.454Z,100257.38
2019-02-12T15:22:45.093Z,100263.61
2019-02-12T15:25:16.380Z,100269.20
2019-02-12T15:27:48.198Z,100270.95
2019-02-12T15:30:20.386Z,100268.34
2019-02-12T15:32:51.897Z,100268.34
2019-02-12T15:35:23.212Z,100273.06
2019-02-12T15:37:54.379Z,100274.66
2019-02-12T15:40:26.285Z,100273.70
2019-02-12T15:42:57.720Z,100274.20
2019-02-12T15:45:29.542Z,100264.05
2019-02-12T15:48:00.980Z,100264.05
2019-02-12T15:50:32.333Z,100277.73
2019-02-12T15:53:03.650Z,100278.91
2019-02-12T15:55:42.132Z,100275.12
2019-02-12T15:58:08.084Z,100280.79
2019-02-12T16:00:39.867Z,100285.48
2019-02-12T16:03:12.493Z,100285.48
2019-02-12T16:05:43.960Z,100289.44
2019-02-12T16:08:15.369Z,100289.44
2019-02-12T16:10:46.675Z,100289.03
2019-02-12T16:13:18.147Z,100298.91
2019-02-12T16:15:49.748Z,100299.76
2019-02-12T16:18:22.916Z,100306.62
2019-02-12T16:20:55.108Z,100306.62
2019-02-12T16:23:26.689Z,100310.50
2019-02-12T16:25:59.538Z,100313.66
2019-02-12T16:28:31.128Z,100313.66
2019-02-12T16:31:02.755Z,100317.39
2019-02-12T16:33:34.623Z,100317.39
2019-02-12T16:36:06.459Z,100314.09
2019-02-12T16:38:38.433Z,100309.20
2019-02-12T16:41:09.986Z,100304.50
2019-02-12T16:43:41.430Z,100301.62
2019-02-12T16:46:19.243Z,100301.62
2019-02-12T16:48:52.174Z,100298.31
2019-02-12T16:51:25.949Z,100300.80
2019-02-12T16:54:00.258Z,100300.80
2019-02-12T16:56:34.581Z,100291.75
2019-02-12T16:59:11.511Z,100291.63
2019-02-12T17:01:44.795Z,100292.36
2019-02-12T17:04:16.466Z,100292.36
2019-02-12T17:06:48.626Z,100282.50
2019-02-12T17:09:20.195Z,100283.11
2019-02-12T17:11:52.319Z,100283.11
2019-02-12T17:14:23.790Z,100284.42
2019-02-12T17:16:55.184Z,100284.42
2019-02-12T17:19:26.839Z,100293.84
2019-02-12T17:21:58.667Z,100290.09
2019-02-12T17:24:30.830Z,100295.67
2019-02-12T17:27:02.282Z,100295.67
2019-02-12T17:29:34.947Z,100281.81
2019-02-12T17:32:06.606Z,100283.20
2019-02-12T17:34:37.961Z,100292.48
2019-02-12T17:37:09.716Z,100293.83
2019-02-12T17:39:41.545Z,100282.01
2019-02-12T17:42:13.053Z,100282.01
2019-02-12T17:44:44.568Z,100291.34
2019-02-12T17:47:16.262Z,100291.34
2019-02-12T17:49:47.873Z,100289.64
2019-02-12T17:52:19.865Z,100284.95
2019-02-12T17:54:51.232Z,100284.95
2019-02-12T17:57:22.738Z,100286.78
2019-02-12T17:59:54.097Z,100284.22
2019-02-12T18:02:25.587Z,100284.22
2019-02-12T18:04:57.098Z,100280.66
2019-02-12T18:07:28.602Z,100277.24
2019-02-12T18:10:00.109Z,100277.16
2019-02-12T18:12:31.941Z,100277.16
2019-02-12T18:15:03.112Z,100280.63
2019-02-12T18:17:34.410Z,100268.11
2019-02-12T18:20:05.961Z,100264.73
2019-02-12T18:22:37.580Z,100264.73
2019-02-12T18:25:09.683Z,100270.06
2019-02-12T18:27:41.268Z,100273.03
2019-02-12T18:30:14.398Z,100262.64
2019-02-12T18:32:46.185Z,100262.64
2019-02-12T18:35:17.430Z,100264.15
2019-02-12T18:37:48.816Z,100264.15
2019-02-12T18:40:20.340Z,100255.14
2019-02-12T18:42:51.635Z,100255.14
2019-02-12T18:45:22.796Z,100255.80
2019-02-12T18:47:54.076Z,100253.30
2019-02-12T18:50:25.568Z,100253.30
2019-02-12T18:52:57.099Z,100266.50
2019-02-12T18:55:28.461Z,100266.50
2019-02-12T18:57:59.959Z,100267.04
2019-02-12T19:00:31.362Z,100269.97
2019-02-12T19:03:02.526Z,100264.95
2019-02-12T19:05:33.808Z,100272.38
2019-02-12T19:08:05.815Z,100271.05
2019-02-12T19:10:37.736Z,100272.97
2019-02-12T19:13:09.171Z,100271.37
2019-02-12T19:15:40.427Z,100282.79
2019-02-12T19:18:15.200Z,100285.39
2019-02-12T19:20:46.674Z,100266.64
2019-02-12T19:23:18.343Z,100261.79
2019-02-12T19:25:49.708Z,100256.49
2019-02-12T19:28:21.386Z,100256.49
2019-02-12T19:30:52.861Z,100254.41
2019-02-12T19:33:26.030Z,100258.24
2019-02-12T19:35:57.685Z,100258.24
2019-02-12T19:38:29.243Z,100263.81
2019-02-12T19:41:00.801Z,100263.81
2019-02-12T19:43:32.094Z,100274.17
2019-02-12T19:46:03.453Z,100279.07
2019-02-12T19:48:35.000Z,100272.31
2019-02-12T19:51:06.699Z,100272.31
2019-02-12T19:53:38.392Z,100271.37
2019-02-12T19:56:10.013Z,100241.45
2019-02-12T19:58:41.870Z,100260.73
2019-02-12T20:01:13.768Z,100260.73
2019-02-12T20:03:45.132Z,100256.90
2019-02-12T20:06:16.832Z,100256.48
2019-02-12T20:08:48.327Z,100252.28
2019-02-12T20:11:19.965Z,100254.66
2019-02-12T20:13:51.131Z,100254.66
2019-02-12T20:16:22.794Z,100255.17
2019-02-12T20:18:54.026Z,100247.52
2019-02-12T20:21:25.445Z,100251.51
2019-02-12T20:23:56.727Z,100246.03
2019-02-12T20:26:28.108Z,100251.59
2019-02-12T20:28:59.626Z,100255.75
2019-02-12T20:31:31.957Z,100254.13
2019-02-12T20:34:03.589Z,100252.59
2019-02-12T20:36:36.587Z,100245.91
2019-02-12T20:39:08.412Z,100245.91
2019-02-12T20:41:40.226Z,100230.95
2019-02-12T20:44:11.909Z,100230.95
2019-02-12T20:46:43.599Z,100237.41
2019-02-12T20:49:15.163Z,100226.98
2019-02-12T20:51:46.458Z,100225.45
2019-02-12T20:54:18.505Z,100230.60
2019-02-12T20:56:49.975Z,100234.89
2019-02-12T20:59:24.163Z,100237.39
2019-02-12T21:01:55.584Z,100229.70
2019-02-12T21:04:27.277Z,100225.80
2019-02-12T21:06:59.005Z,100225.75
2019-02-12T21:09:30.824Z,100218.58
2019-02-12T21:12:02.601Z,100228.62
2019-02-12T21:14:35.470Z,100222.70
2019-02-12T21:17:07.077Z,100215.45
2019-02-12T21:19:38.633Z,100206.92
2019-02-12T21:22:11.103Z,100199.03
2019-02-12T21:24:42.538Z,100203.09
2019-02-12T21:27:14.088Z,100210.91
2019-02-12T21:29:45.244Z,100218.44
2019-02-12T21:32:16.840Z,100213.84
2019-02-12T21:34:48.290Z,100215.64
2019-02-12T21:37:20.410Z,100208.48
2019-02-12T21:39:51.928Z,100204.23
2019-02-12T21:42:23.335Z,100201.78
2019-02-12T21:44:54.821Z,100202.72
2019-02-12T21:47:26.518Z,100209.31
2019-02-12T21:49:57.682Z,100204.73
2019-02-12T21:52:29.219Z,100205.18
2019-02-12T21:55:00.576Z,100202.77
2019-02-12T21:57:32.325Z,100192.34
2019-02-12T22:00:04.970Z,100189.55
2019-02-12T22:02:37.985Z,100194.69
2019-02-12T22:05:10.450Z,100191.08
2019-02-12T22:07:43.085Z,100179.91
2019-02-12T22:10:17.379Z,100189.02
2019-02-12T22:12:50.041Z,100183.00
2019-02-12T22:15:21.501Z,100183.00
2019-02-12T22:17:53.382Z,100178.42
2019-02-12T22:20:24.734Z,100181.95
2019-02-12T22:22:56.250Z,100176.00
2019-02-12T22:25:28.070Z,100168.67
2019-02-12T22:27:59.899Z,100168.67
2019-02-12T22:30:31.864Z,100173.09
2019-02-12T22:33:03.277Z,100180.45
2019-02-12T22:35:34.579Z,100173.02
2019-02-12T22:38:06.326Z,100168.48
2019-02-12T22:40:37.674Z,100168.48
2019-02-12T22:43:09.113Z,100172.45
2019-02-12T22:45:41.468Z,100169.95
2019-02-12T22:48:12.813Z,100181.34
2019-02-12T22:50:44.333Z,100189.02
2019-02-12T22:53:15.925Z,100183.88
2019-02-12T22:55:47.191Z,100186.17
2019-02-12T22:58:19.068Z,100186.17
2019-02-12T23:01:06.303Z,100175.83
2019-02-12T23:03:38.982Z,100175.83
2019-02-12T23:06:10.540Z,100186.56
2019-02-12T23:08:42.284Z,100187.56
2019-02-12T23:11:13.455Z,100187.56
2019-02-12T23:13:45.113Z,100169.20
2019-02-12T23:16:16.298Z,100163.69
2019-02-12T23:18:47.723Z,100163.69
2019-02-12T23:21:19.419Z,100172.11
2019-02-12T23:23:51.327Z,100187.45
2019-02-12T23:26:22.934Z,100176.87
2019-02-12T23:28:54.961Z,100176.87
2019-02-12T23:31:26.412Z,100184.94
2019-02-12T23:33:58.017Z,100177.86
2019-02-12T23:36:29.381Z,100184.20
2019-02-12T23:39:00.874Z,100184.20
2019-02-12T23:41:33.686Z,100168.83
2019-02-12T23:44:05.221Z,100151.12
2019-02-12T23:46:36.633Z,100134.59
2019-02-12T23:49:08.165Z,100134.34
2019-02-12T23:51:40.511Z,100134.34
2019-02-12T23:54:12.035Z,100141.09
2019-02-12T23:56:43.489Z,100149.03
2019-02-12T23:59:15.027Z,100144.44
